Time;durP1;ratioP1;P1;durP2;ratioP2;P2;SDS_P1;SDS_P2;PMS_P1;PMS_P2;Temp;Humidity;BMP_temperature;BMP_pressure;BME280_temperature;BME280_humidity;BME280_pressure;Samples;Min_cycle;Max_cycle;Signal;HPM_P1;HPM_P2
2021/01/06 04:37:33;;;;;;;23.43;16.43;;;2.60;99.90;;;;;;12989731;22;20032;-94
2021/01/06 04:42:36;;;;;;;24.80;16.10;;;2.50;99.90;;;;;;12942390;22;20024;-94
2021/01/06 04:48:24;;;;;;;21.65;15.30;;;2.60;99.90;;;;;;12968002;22;20022;-94
2021/01/06 04:53:47;;;;;;;22.77;14.35;;;2.60;99.90;;;;;;12968167;22;20043;-94
2021/01/06 04:58:54;;;;;;;;;;;2.50;99.90;;;;;;12993610;22;20065;-94
2021/01/06 05:04:30;;;;;;;22.17;15.30;;;2.50;99.90;;;;;;12993936;22;20308;-94
2021/01/06 05:10:19;;;;;;;23.35;15.65;;;2.50;99.90;;;;;;12942024;22;20083;-94
2021/01/06 05:15:44;;;;;;;19.10;13.90;;;2.50;99.90;;;;;;12930496;22;20091;-94
2021/01/06 05:20:46;;;;;;;26.25;16.30;;;2.50;99.90;;;;;;12966630;22;20030;-94
2021/01/06 05:25:49;;;;;;;22.88;14.75;;;2.50;99.90;;;;;;12941854;22;20019;-94
2021/01/06 05:31:02;;;;;;;22.70;15.50;;;2.50;99.90;;;;;;12945997;22;20019;-94
2021/01/06 05:36:04;;;;;;;23.42;16.33;;;2.50;99.90;;;;;;12917498;22;20024;-94
2021/01/06 05:41:05;;;;;;;22.70;15.25;;;2.50;99.90;;;;;;12892220;22;20093;-94
2021/01/06 05:46:17;;;;;;;18.15;13.95;;;2.50;99.90;;;;;;12942130;22;20016;-95
2021/01/06 05:51:35;;;;;;;20.85;14.00;;;2.50;99.90;;;;;;12941306;22;20090;-94
2021/01/06 05:56:52;;;;;;;22.02;14.93;;;2.50;99.90;;;;;;12941329;22;20114;-94
2021/01/06 06:02:08;;;;;;;26.10;16.13;;;2.50;99.90;;;;;;12965566;22;20408;-94
2021/01/06 06:07:12;;;;;;;19.92;14.65;;;2.50;99.90;;;;;;12940336;22;20043;-93
2021/01/06 06:12:22;;;;;;;21.15;16.13;;;2.40;99.90;;;;;;12991405;22;20083;-94
2021/01/06 06:17:57;;;;;;;19.25;13.40;;;2.40;99.90;;;;;;12991069;22;20086;-94
2021/01/06 06:23:11;;;;;;;21.35;14.73;;;2.40;99.90;;;;;;12990813;22;20020;-93
2021/01/06 06:28:27;;;;;;;19.85;13.93;;;2.40;99.90;;;;;;12940272;22;20020;-93
2021/01/06 06:33:34;;;;;;;17.65;13.68;;;2.40;99.90;;;;;;12939459;22;20026;-93
2021/01/06 06:38:40;;;;;;;18.25;12.85;;;2.40;99.90;;;;;;12940426;22;20024;-94
2021/01/06 06:43:47;;;;;;;19.00;13.20;;;2.30;99.90;;;;;;12965368;22;20016;-94
2021/01/06 06:49:18;;;;;;;17.52;13.38;;;2.40;99.90;;;;;;12941751;22;20094;-94
2021/01/06 06:54:50;;;;;;;23.33;15.25;;;2.30;99.90;;;;;;12966112;22;20498;-94
2021/01/06 07:00:17;;;;;;;19.13;12.80;;;2.30;99.90;;;;;;12940019;22;20031;-93
2021/01/06 07:05:48;;;;;;;19.65;13.48;;;2.30;99.90;;;;;;12941061;22;20518;-94
2021/01/06 07:11:20;;;;;;;17.95;12.00;;;2.30;99.90;;;;;;12916837;22;20240;-93
2021/01/06 07:16:34;;;;;;;19.40;12.13;;;2.20;99.90;;;;;;12989873;22;20039;-93
2021/01/06 07:21:35;;;;;;;15.73;11.32;;;2.10;99.90;;;;;;12940260;22;20023;-94
2021/01/06 07:26:48;;;;;;;14.30;11.48;;;2.10;99.90;;;;;;12913886;22;20039;-93
2021/01/06 07:32:01;;;;;;;18.02;11.18;;;2.00;99.90;;;;;;12939736;22;20030;-93
2021/01/06 07:37:06;;;;;;;17.42;10.85;;;2.00;99.90;;;;;;12939420;22;20050;-93
2021/01/06 07:42:31;;;;;;;19.73;10.85;;;2.00;99.90;;;;;;12912926;22;20099;-93
2021/01/06 07:48:00;;;;;;;15.43;10.30;;;2.00;99.90;;;;;;12938316;22;20027;-93
2021/01/06 07:53:11;;;;;;;16.80;11.40;;;2.00;99.90;;;;;;12954930;22;20024;-94
2021/01/06 07:58:19;;;;;;;16.27;10.63;;;2.00;99.90;;;;;;12938112;22;20094;-94
2021/01/06 08:03:55;;;;;;;15.07;10.65;;;2.10;99.90;;;;;;12913435;22;20480;-94
2021/01/06 08:08:57;;;;;;;18.30;11.73;;;2.10;99.90;;;;;;12940784;22;20020;-94
2021/01/06 08:14:29;;;;;;;14.05;10.10;;;2.10;99.90;;;;;;12925465;22;20020;-94
2021/01/06 08:19:50;;;;;;;20.88;12.00;;;2.20;99.90;;;;;;12938603;22;20437;-94
2021/01/06 08:25:01;;;;;;;21.20;12.40;;;2.20;99.90;;;;;;12938301;22;20518;-94
2021/01/06 08:30:27;;;;;;;17.13;11.27;;;2.20;99.90;;;;;;12988631;22;20024;-94
2021/01/06 08:35:35;;;;;;;18.58;10.90;;;2.20;99.90;;;;;;12939246;22;20448;-94
2021/01/06 08:40:39;;;;;;;21.17;12.15;;;2.20;99.90;;;;;;12963272;22;20397;-93
2021/01/06 08:45:54;;;;;;;17.42;12.48;;;2.20;99.90;;;;;;12937730;22;20022;-93
2021/01/06 08:51:30;;;;;;;17.48;11.48;;;2.20;99.90;;;;;;12938406;22;20020;-94
2021/01/06 08:56:38;;;;;;;15.18;11.30;;;2.20;99.90;;;;;;12940211;22;20024;-94
2021/01/06 09:01:50;;;;;;;17.52;10.85;;;2.20;99.90;;;;;;12912450;22;20391;-94
2021/01/06 09:07:24;;;;;;;13.63;10.32;;;2.20;99.90;;;;;;12913191;22;20043;-94
2021/01/06 09:12:38;;;;;;;18.42;12.25;;;2.20;99.90;;;;;;12938411;22;20046;-93
2021/01/06 09:18:09;;;;;;;16.00;11.55;;;2.20;99.90;;;;;;12964032;22;20444;-94
2021/01/06 09:23:17;;;;;;;17.60;11.23;;;2.30;99.90;;;;;;12938159;22;20015;-94
2021/01/06 09:28:20;;;;;;;16.20;11.55;;;2.30;99.90;;;;;;12937302;22;20019;-94
2021/01/06 09:33:31;;;;;;;21.95;13.68;;;2.30;99.90;;;;;;12915420;22;20055;-94
2021/01/06 09:39:00;;;;;;;16.50;12.15;;;2.30;99.90;;;;;;12942044;22;20039;-94
2021/01/06 09:44:07;;;;;;;14.10;10.27;;;2.30;99.90;;;;;;12938901;22;20016;-93
2021/01/06 20:35:53;;;;;;;10.77;5.30;;;1.10;99.90;;;;;;12991600;22;20023;-94
2021/01/06 20:40:55;;;;;;;;;;;1.20;99.90;;;;;;12914186;22;20020;-93
2021/01/06 20:46:11;;;;;;;14.57;6.15;;;1.20;99.90;;;;;;12854398;22;20299;-93
2021/01/06 20:51:12;;;;;;;8.73;6.18;;;1.10;99.90;;;;;;12938006;22;20024;-93
2021/01/06 21:02:46;;;;;;;9.52;5.88;;;1.00;99.90;;;;;;12679544;22;19913;-93
2021/01/06 21:08:58;;;;;;;8.35;5.75;;;1.00;99.90;;;;;;12926038;22;20020;-93
2021/01/06 21:14:00;;;;;;;10.05;5.78;;;1.00;99.90;;;;;;12938417;22;20020;-93
2021/01/06 21:19:02;;;;;;;11.60;6.82;;;1.10;99.90;;;;;;12938108;22;20020;-93
2021/01/06 21:24:05;;;;;;;10.32;6.35;;;1.10;99.90;;;;;;12937829;22;20065;-93
2021/01/06 21:29:08;;;;;;;14.32;6.43;;;1.10;99.90;;;;;;12941079;22;20019;-93
2021/01/06 21:34:14;;;;;;;10.77;6.90;;;1.10;99.90;;;;;;12942104;22;20024;-93
2021/01/06 21:39:16;;;;;;;11.02;4.95;;;1.10;99.90;;;;;;12942050;22;20032;-93
2021/01/06 21:44:17;;;;;;;10.45;5.57;;;1.10;99.90;;;;;;12941286;22;20023;-93
2021/01/06 22:09:59;;;;;;;10.23;5.90;;;0.90;99.90;;;;;;12986130;22;19915;-93
2021/01/06 22:15:00;;;;;;;9.77;6.20;;;1.00;99.90;;;;;;12968113;22;20023;-93
2021/01/06 22:20:03;;;;;;;;;;;1.00;99.90;;;;;;12941555;22;20043;-93
2021/01/06 22:25:05;;;;;;;11.45;6.03;;;0.90;99.90;;;;;;12966181;22;19926;-93
2021/01/06 22:30:07;;;;;;;11.45;7.00;;;1.00;99.90;;;;;;12941145;22;20353;-93
2021/01/06 22:35:16;;;;;;;15.88;8.60;;;1.00;99.90;;;;;;12943810;22;20520;-93
2021/01/06 22:40:17;;;;;;;10.32;7.25;;;0.90;99.90;;;;;;12990312;22;20024;-93
2021/01/06 22:45:19;;;;;;;13.13;7.35;;;0.90;99.90;;;;;;12990879;22;20023;-93
2021/01/06 22:50:21;;;;;;;;;;;0.90;99.90;;;;;;12916777;22;20445;-93
2021/01/06 22:55:22;;;;;;;13.38;7.20;;;0.80;99.90;;;;;;12965495;22;19992;-93
2021/01/06 23:00:28;;;;;;;;;;;0.80;99.90;;;;;;12940994;22;20467;-93
2021/01/06 23:05:30;;;;;;;11.30;6.75;;;0.90;99.90;;;;;;12965592;22;19915;-94
2021/01/06 23:10:31;;;;;;;;;;;0.70;99.90;;;;;;12916339;22;20081;-93
2021/01/06 23:15:33;;;;;;;12.75;8.25;;;0.70;99.90;;;;;;12964727;22;19922;-93
2021/01/06 23:20:35;;;;;;;10.80;7.00;;;0.80;99.90;;;;;;12940904;22;20024;-94
2021/01/06 23:25:36;;;;;;;16.20;8.85;;;0.70;99.90;;;;;;12964604;22;20016;-93
2021/01/06 23:30:38;;;;;;;12.57;8.48;;;0.70;99.90;;;;;;12915429;22;20027;-94
2021/01/06 23:35:40;;;;;;;11.43;6.78;;;0.90;99.90;;;;;;12940083;22;20027;-93
2021/01/06 23:40:41;;;;;;;;;;;0.70;99.90;;;;;;12893522;22;20023;-93
2021/01/06 23:45:43;;;;;;;8.75;6.72;;;0.70;99.90;;;;;;12968499;22;19915;-94
2021/01/06 23:50:44;;;;;;;15.65;7.85;;;0.70;99.90;;;;;;12965298;22;20031;-94
2021/01/06 23:55:46;;;;;;;;;;;0.70;99.90;;;;;;12941447;22;20023;-93
